Time;durP1;ratioP1;P1;durP2;ratioP2;P2;SDS_P1;SDS_P2;PMS_P1;PMS_P2;Temp;Humidity;BMP_temperature;BMP_pressure;BME280_temperature;BME280_humidity;BME280_pressure;Samples;Min_cycle;Max_cycle;Signal;HPM_P1;HPM_P2
2023/06/25 00:00:58;;;;;;;17.33;14.85;;;;;;;23.59;60.30;101903.50;5061187;28;20037;-73
2023/06/25 00:03:23;;;;;;;16.83;14.93;;;;;;;23.58;59.91;101890.50;5070698;28;20178;-72
2023/06/25 00:05:49;;;;;;;18.15;14.73;;;;;;;23.55;60.22;101899.63;5057202;28;20124;-73
2023/06/25 00:08:14;;;;;;;17.98;14.38;;;;;;;23.52;59.83;101891.75;5050433;28;20025;-72
2023/06/25 00:10:40;;;;;;;17.55;15.07;;;;;;;23.47;60.34;101887.03;5051751;28;20068;-73
2023/06/25 00:13:05;;;;;;;16.67;14.88;;;;;;;23.47;59.96;101892.72;5056661;28;20120;-73
2023/06/25 00:15:30;;;;;;;15.73;14.05;;;;;;;23.43;60.04;101885.16;5064894;28;20085;-72
2023/06/25 00:17:57;;;;;;;16.42;13.75;;;;;;;23.37;60.28;101886.41;5069943;28;20057;-73
2023/06/25 00:20:24;;;;;;;14.77;12.65;;;;;;;23.42;59.75;101875.81;5070481;28;20540;-73
2023/06/25 00:22:50;;;;;;;14.50;13.00;;;;;;;23.39;59.87;101886.94;5070091;28;20024;-72
2023/06/25 00:25:16;;;;;;;16.13;13.55;;;;;;;23.29;60.07;101879.47;5069388;28;20403;-73
2023/06/25 00:27:47;;;;;;;16.40;13.77;;;;;;;23.29;59.96;101879.47;5070657;28;20024;-73
2023/06/25 00:30:13;;;;;;;15.98;14.30;;;;;;;23.27;60.14;101882.63;5067551;28;20028;-73
2023/06/25 00:32:38;;;;;;;16.35;14.25;;;;;;;23.21;60.36;101868.88;5053243;28;20045;-72
2023/06/25 00:35:06;;;;;;;17.17;14.00;;;;;;;23.19;60.43;101877.72;5050571;28;20025;-73
2023/06/25 00:37:36;;;;;;;17.83;13.95;;;;;;;23.17;60.59;101879.16;5067229;28;20067;-72
2023/06/25 00:40:03;;;;;;;16.92;13.77;;;;;;;23.14;60.65;101874.94;5068689;28;20097;-73
2023/06/25 00:42:40;;;;;;;16.40;13.45;;;;;;;23.14;60.51;101880.63;5066038;28;20035;-73
2023/06/25 00:45:07;;;;;;;16.17;13.80;;;;;;;23.11;60.27;101869.94;5069307;28;20032;-73
2023/06/25 00:47:32;;;;;;;20.00;14.98;;;;;;;23.07;60.74;101874.56;5068123;28;20032;-72
2023/06/25 00:50:00;;;;;;;15.38;13.57;;;;;;;23.06;60.50;101867.19;5063089;28;20025;-73
2023/06/25 00:52:25;;;;;;;16.20;14.10;;;;;;;23.04;60.64;101875.16;5074472;28;20044;-72
2023/06/25 00:54:51;;;;;;;18.52;14.35;;;;;;;23.02;60.50;101866.13;5072734;28;20588;-73
2023/06/25 00:57:16;;;;;;;18.55;15.13;;;;;;;23.02;60.91;101866.97;5071448;28;20029;-72
2023/06/25 00:59:43;;;;;;;16.58;14.57;;;;;;;23.00;60.31;101865.63;5073850;28;20528;-74
2023/06/25 01:02:35;;;;;;;17.45;14.75;;;;;;;22.95;60.27;101857.22;5072797;28;20028;-74
2023/06/25 01:05:04;;;;;;;17.17;14.63;;;;;;;22.96;60.61;101862.56;5072918;28;20040;-73
2023/06/25 01:07:30;;;;;;;16.83;14.50;;;;;;;22.95;60.64;101857.22;5065147;28;20029;-73
2023/06/25 01:09:56;;;;;;;17.20;14.15;;;;;;;22.94;60.59;101847.03;5053810;28;20507;-73
2023/06/25 01:12:22;;;;;;;16.85;14.75;;;;;;;22.85;60.83;101851.72;5053010;28;20810;-73
2023/06/25 01:14:49;;;;;;;20.23;15.00;;;;;;;22.77;60.78;101842.81;5053119;28;20108;-73
2023/06/25 01:17:15;;;;;;;18.95;14.45;;;;;;;22.82;60.82;101849.50;5053125;28;20037;-73
2023/06/25 01:19:40;;;;;;;17.33;14.77;;;;;;;22.81;60.75;101847.84;5052213;28;20060;-74
2023/06/25 01:22:07;;;;;;;20.08;15.50;;;;;;;22.79;60.75;101846.19;5066720;28;20432;-73
2023/06/25 01:24:34;;;;;;;18.45;14.93;;;;;;;22.75;60.76;101845.13;5068012;28;20051;-73
2023/06/25 01:27:00;;;;;;;17.42;14.63;;;;;;;22.70;60.72;101839.53;5071690;28;20094;-73
2023/06/25 01:29:27;;;;;;;19.08;14.70;;;;;;;22.74;60.71;101845.41;5072820;28;20447;-73
2023/06/25 01:31:53;;;;;;;17.30;15.30;;;;;;;22.71;60.80;101841.19;5070866;28;20028;-73
2023/06/25 01:34:20;;;;;;;19.63;15.38;;;;;;;22.71;60.80;101840.38;5052854;28;20112;-73
2023/06/25 01:36:48;;;;;;;19.80;15.32;;;;;;;22.66;60.87;101834.81;5070688;28;20072;-73
2023/06/25 01:39:15;;;;;;;17.77;15.02;;;;;;;22.63;61.33;101830.59;5072756;28;20103;-73
2023/06/25 01:41:40;;;;;;;17.13;14.65;;;;;;;22.63;60.84;101827.78;5071842;28;20422;-73
2023/06/25 01:44:05;;;;;;;18.20;15.02;;;;;;;22.63;61.08;101824.94;5076481;28;20028;-73
2023/06/25 01:46:31;;;;;;;21.02;14.40;;;;;;;22.62;60.91;101820.44;5081823;28;20059;-72
2023/06/25 01:48:56;;;;;;;18.20;14.82;;;;;;;22.58;60.99;101819.38;5053190;28;20032;-73
2023/06/25 01:51:22;;;;;;;18.48;15.13;;;;;;;22.57;61.15;101812.06;5069518;28;20033;-73
2023/06/25 01:53:48;;;;;;;18.42;14.90;;;;;;;22.55;60.98;101808.69;5071448;28;20035;-73
2023/06/25 01:56:13;;;;;;;16.90;14.65;;;;;;;22.54;60.77;101810.69;5083845;28;20027;-73
2023/06/25 01:58:38;;;;;;;18.70;14.63;;;;;;;22.55;60.68;101803.84;5067113;28;20032;-73
2023/06/25 02:01:04;;;;;;;21.55;16.02;;;;;;;22.52;61.02;101813.00;5066426;28;20020;-72
2023/06/25 02:03:29;;;;;;;15.93;13.90;;;;;;;22.50;61.17;101803.13;5093050;28;20119;-72
2023/06/25 02:05:54;;;;;;;18.42;14.80;;;;;;;22.47;60.95;101800.91;5091597;28;20043;-73
2023/06/25 02:08:19;;;;;;;17.70;14.23;;;;;;;22.48;60.82;101791.28;5070120;28;20066;-73
2023/06/25 02:10:45;;;;;;;19.45;15.57;;;;;;;22.41;61.41;101791.69;5069843;28;20033;-73
2023/06/25 02:13:10;;;;;;;17.33;15.35;;;;;;;22.43;60.99;101794.19;5072578;28;20104;-73
2023/06/25 02:15:35;;;;;;;17.85;15.15;;;;;;;22.36;61.23;101788.97;5067709;28;20155;-72
2023/06/25 02:18:01;;;;;;;15.15;13.55;;;;;;;22.42;61.07;101784.88;5071973;28;20064;-73
2023/06/25 02:20:26;;;;;;;18.80;15.77;;;;;;;22.33;60.55;101780.25;5058356;28;20518;-73
2023/06/25 02:22:51;;;;;;;19.38;15.73;;;;;;;22.33;60.85;101781.09;5070326;28;20037;-73
2023/06/25 02:25:17;;;;;;;16.35;14.63;;;;;;;22.32;60.75;101772.91;5072800;28;20032;-73
2023/06/25 02:27:42;;;;;;;18.10;15.70;;;;;;;22.27;60.88;101771.84;5072162;28;20384;-73
2023/06/25 02:30:08;;;;;;;17.33;14.82;;;;;;;22.29;60.76;101775.22;5070504;28;20777;-73
2023/06/25 02:32:33;;;;;;;17.67;15.77;;;;;;;22.25;60.97;101774.16;5068124;28;20388;-72
2023/06/25 02:34:59;;;;;;;18.77;15.20;;;;;;;22.24;60.92;101766.84;5065559;28;20029;-73
2023/06/25 02:37:24;;;;;;;18.70;15.13;;;;;;;22.27;60.58;101757.69;5071090;28;20035;-73
2023/06/25 02:39:49;;;;;;;17.65;15.77;;;;;;;22.16;61.08;101764.69;5071855;28;20169;-74
2023/06/25 02:42:15;;;;;;;18.20;16.13;;;;;;;22.03;61.64;101759.81;5072078;28;20543;-73
2023/06/25 02:44:40;;;;;;;20.67;16.90;;;;;;;22.04;61.41;101764.31;5070059;28;20043;-73
2023/06/25 02:47:05;;;;;;;18.15;15.95;;;;;;;22.10;61.05;101753.75;5070148;28;20044;-73
2023/06/25 02:49:31;;;;;;;20.50;16.63;;;;;;;22.09;60.97;101752.09;5067943;28;20044;-73
2023/06/25 02:51:56;;;;;;;17.98;15.77;;;;;;;22.13;60.88;101754.00;5071710;28;20032;-74
2023/06/25 02:54:21;;;;;;;24.88;17.48;;;;;;;22.06;61.22;101751.53;5070297;28;20103;-73
2023/06/25 02:56:47;;;;;;;19.70;15.98;;;;;;;22.09;61.10;101760.56;5070937;28;20028;-74
2023/06/25 02:59:12;;;;;;;23.17;16.40;;;;;;;22.08;60.93;101756.88;5070852;28;20463;-73
2023/06/25 03:01:37;;;;;;;23.15;16.33;;;;;;;22.04;61.24;101750.16;5057594;28;20044;-74
2023/06/25 03:04:03;;;;;;;18.55;16.10;;;;;;;22.06;60.98;101754.38;5059569;28;20036;-74
2023/06/25 03:06:28;;;;;;;21.40;16.88;;;;;;;22.02;61.18;101755.31;5067380;28;20036;-73
2023/06/25 03:08:53;;;;;;;18.70;16.20;;;;;;;22.00;60.96;101751.94;5071560;28;20099;-73
2023/06/25 03:11:18;;;;;;;22.05;16.83;;;;;;;21.95;61.13;101752.03;5069222;28;20440;-73
2023/06/25 03:13:44;;;;;;;21.75;16.20;;;;;;;21.95;60.97;101749.19;5061000;28;20029;-73
2023/06/25 03:16:09;;;;;;;24.40;17.05;;;;;;;21.95;61.15;101752.03;5051194;28;20049;-73
2023/06/25 03:18:34;;;;;;;18.25;14.48;;;;;;;21.97;60.88;101752.56;5053174;28;20059;-74
2023/06/25 03:21:00;;;;;;;19.42;16.70;;;;;;;21.91;61.33;101748.97;5066390;28;20498;-73
2023/06/25 03:23:25;;;;;;;21.48;15.30;;;;;;;21.96;60.79;101748.88;5055673;28;20094;-73
2023/06/25 03:25:50;;;;;;;22.98;15.70;;;;;;;21.94;60.98;101750.34;5050585;28;20411;-73
2023/06/25 03:28:16;;;;;;;22.00;16.02;;;;;;;21.93;60.92;101743.00;5062427;28;20494;-73
2023/06/25 03:30:41;;;;;;;19.83;15.82;;;;;;;21.96;61.01;101751.72;5071954;28;20024;-73
2023/06/25 03:33:06;;;;;;;22.35;15.45;;;;;;;21.89;61.32;101741.94;5069697;28;20558;-73
2023/06/25 03:35:32;;;;;;;18.58;15.68;;;;;;;21.81;61.31;101744.34;5071287;28;20505;-73
2023/06/25 03:37:57;;;;;;;19.08;15.68;;;;;;;21.85;61.22;101735.22;5066155;28;20606;-73
2023/06/25 03:40:22;;;;;;;25.00;16.92;;;;;;;21.79;61.33;101740.97;5070585;28;20108;-73
2023/06/25 03:42:48;;;;;;;22.17;16.33;;;;;;;21.79;61.34;101738.16;5070685;28;20472;-73
2023/06/25 03:45:15;;;;;;;21.40;16.05;;;;;;;21.81;61.41;101738.69;5070971;28;20017;-73
2023/06/25 03:47:41;;;;;;;24.10;16.05;;;;;;;21.79;61.41;101740.97;5067831;28;20033;-73
2023/06/25 03:50:07;;;;;;;27.17;17.65;;;;;;;21.67;61.75;101743.44;5070666;28;20032;-73
2023/06/25 03:52:32;;;;;;;21.00;15.73;;;;;;;21.72;61.49;101728.38;5070372;28;20106;-73
2023/06/25 03:54:57;;;;;;;18.30;15.27;;;;;;;21.73;61.48;101735.69;5063877;28;20056;-73
2023/06/25 03:57:23;;;;;;;21.65;16.63;;;;;;;21.70;61.63;101733.50;5068745;28;20028;-73
2023/06/25 03:59:49;;;;;;;23.30;17.15;;;;;;;21.68;61.81;101730.97;5070021;28;20471;-73
2023/06/25 04:02:14;;;;;;;28.10;16.20;;;;;;;21.70;61.62;101733.50;5068709;28;20021;-73
2023/06/25 04:04:39;;;;;;;25.33;15.63;;;;;;;21.70;61.73;101728.69;5070861;28;20084;-72
2023/06/25 04:07:05;;;;;;;23.52;16.38;;;;;;;21.67;61.81;101729.31;5068841;28;20108;-73
2023/06/25 04:09:30;;;;;;;24.02;17.42;;;;;;;21.71;61.67;101733.19;5069468;28;20123;-73
2023/06/25 04:11:55;;;;;;;21.42;17.73;;;;;;;21.69;61.67;101732.69;5062178;28;20169;-72
2023/06/25 04:14:21;;;;;;;20.00;16.33;;;;;;;21.75;61.51;101731.44;5066712;28;20032;-72
2023/06/25 04:16:46;;;;;;;30.88;19.25;;;;;;;21.66;61.85;101738.09;5070520;28;20048;-72
2023/06/25 04:19:11;;;;;;;22.67;18.48;;;;;;;21.68;61.78;101739.44;5070507;28;20380;-72
2023/06/25 04:21:36;;;;;;;20.15;16.58;;;;;;;21.72;61.66;101731.19;5067639;28;20039;-72
2023/06/25 04:24:02;;;;;;;23.25;17.08;;;;;;;21.73;61.61;101736.56;5068953;28;20123;-72
2023/06/25 04:26:27;;;;;;;24.25;18.27;;;;;;;21.72;61.73;101732.03;5068765;28;20083;-73
2023/06/25 04:28:53;;;;;;;21.63;18.92;;;;;;;21.74;61.70;101728.94;5064194;28;20040;-72
2023/06/25 04:31:18;;;;;;;26.77;19.67;;;;;;;21.72;61.86;101728.38;5068675;28;20075;-72
2023/06/25 04:33:43;;;;;;;18.80;15.70;;;;;;;21.76;61.76;101733.09;5069252;28;20041;-73
2023/06/25 04:36:11;;;;;;;24.23;20.55;;;;;;;21.70;62.07;101730.69;5068294;28;20024;-74
2023/06/25 04:38:37;;;;;;;28.95;20.02;;;;;;;21.75;62.14;101725.78;5070482;28;20035;-74
2023/06/25 04:41:03;;;;;;;29.30;21.92;;;;;;;21.69;62.60;101729.84;5069977;28;20021;-74
2023/06/25 04:43:28;;;;;;;24.67;19.52;;;;;;;21.73;62.32;101722.44;5067595;28;20121;-74
2023/06/25 04:45:53;;;;;;;26.20;20.95;;;;;;;21.71;62.26;101726.72;5066627;28;20033;-74
2023/06/25 04:48:19;;;;;;;28.85;21.27;;;;;;;21.71;62.22;101733.19;5070587;28;20028;-73
2023/06/25 04:50:44;;;;;;;23.92;18.95;;;;;;;21.75;61.94;101728.59;5058929;28;20115;-73
2023/06/25 04:53:09;;;;;;;25.00;19.80;;;;;;;21.79;61.72;101732.50;5057010;28;20029;-75
2023/06/25 04:55:35;;;;;;;28.45;19.63;;;;;;;21.79;62.02;101726.00;5049858;28;20092;-74
2023/06/25 04:58:00;;;;;;;22.45;18.70;;;;;;;21.83;62.03;101731.88;5049624;28;20485;-74
2023/06/25 05:00:26;;;;;;;24.27;20.95;;;;;;;21.80;62.20;101734.16;5059889;28;20419;-74
2023/06/25 05:02:51;;;;;;;27.92;18.92;;;;;;;21.86;62.34;101725.63;5051344;28;20036;-75
2023/06/25 05:05:16;;;;;;;24.80;19.05;;;;;;;21.89;61.87;101733.47;5049443;28;20500;-75
2023/06/25 05:07:41;;;;;;;23.67;20.65;;;;;;;21.90;62.01;101726.69;5050303;28;20083;-74
2023/06/25 05:10:07;;;;;;;26.17;19.60;;;;;;;21.91;61.93;101734.84;5065644;28;20476;-74
2023/06/25 05:12:32;;;;;;;24.77;20.55;;;;;;;21.93;61.65;101726.03;5069551;28;20025;-75
2023/06/25 05:14:58;;;;;;;25.15;22.00;;;;;;;21.94;61.96;101730.56;5069648;28;20479;-74
2023/06/25 05:17:23;;;;;;;23.40;20.98;;;;;;;21.95;61.87;101718.09;5063493;28;20104;-73
2023/06/25 05:19:48;;;;;;;29.55;22.60;;;;;;;21.97;61.84;101727.13;5064879;28;20498;-74
2023/06/25 05:22:14;;;;;;;25.98;22.63;;;;;;;21.97;61.47;101736.44;5049513;28;20506;-74
2023/06/25 05:24:39;;;;;;;23.67;21.10;;;;;;;22.02;61.21;101733.53;5049161;28;20504;-74
2023/06/25 05:27:05;;;;;;;24.90;20.63;;;;;;;22.05;60.95;101732.06;5050244;28;20497;-73
2023/06/25 05:29:30;;;;;;;21.67;19.40;;;;;;;22.09;61.24;101726.66;5050009;28;20029;-73
2023/06/25 05:31:55;;;;;;;23.70;20.13;;;;;;;22.13;60.81;101722.91;5062471;28;20111;-74
2023/06/25 05:34:21;;;;;;;25.98;21.92;;;;;;;22.14;61.28;101730.25;5071785;28;20472;-74
2023/06/25 05:36:47;;;;;;;26.02;20.02;;;;;;;22.20;60.88;101720.50;5064457;28;20496;-74
2023/06/25 05:39:12;;;;;;;23.50;20.98;;;;;;;22.24;60.62;101726.38;5071811;28;20020;-74
2023/06/25 05:41:40;;;;;;;23.25;19.75;;;;;;;22.29;60.82;101724.31;5071079;28;20077;-73
2023/06/25 05:44:06;;;;;;;22.60;20.20;;;;;;;22.32;60.72;101720.00;5073498;28;20032;-73
2023/06/25 05:46:31;;;;;;;24.55;21.83;;;;;;;22.36;60.71;101720.22;5072450;28;20036;-74
2023/06/25 05:48:57;;;;;;;24.02;20.15;;;;;;;22.40;60.31;101718.44;5071669;28;20082;-73
2023/06/25 05:51:22;;;;;;;21.40;19.20;;;;;;;22.46;60.16;101717.19;5063168;28;20181;-74
2023/06/25 05:53:50;;;;;;;24.08;20.48;;;;;;;22.48;60.11;101710.09;5071280;28;20067;-73
2023/06/25 05:56:16;;;;;;;22.60;19.15;;;;;;;22.53;60.07;101707.16;5069373;28;20068;-73
2023/06/25 05:58:41;;;;;;;26.58;20.10;;;;;;;22.56;60.06;101708.53;5071968;28;20046;-73
2023/06/25 06:01:07;;;;;;;22.40;20.15;;;;;;;22.62;60.24;101703.59;5072189;28;20028;-73
2023/06/25 06:03:32;;;;;;;22.00;19.77;;;;;;;22.64;60.03;101707.78;5070655;28;20031;-73
2023/06/25 06:05:58;;;;;;;21.60;18.75;;;;;;;22.69;60.11;101710.50;5072350;28;20119;-73
2023/06/25 06:08:24;;;;;;;23.35;20.13;;;;;;;22.70;60.30;101703.69;5071096;28;20058;-72
2023/06/25 06:10:49;;;;;;;21.00;18.80;;;;;;;22.78;59.75;101705.78;5069094;28;20055;-73
2023/06/25 06:13:15;;;;;;;21.88;18.55;;;;;;;22.79;59.68;101706.63;5070878;28;20476;-73
2023/06/25 06:15:41;;;;;;;22.58;20.23;;;;;;;22.81;59.16;101703.50;5068866;28;20492;-73
2023/06/25 06:18:06;;;;;;;21.02;18.52;;;;;;;22.86;59.35;101711.88;5071952;28;20813;-73
2023/06/25 06:20:31;;;;;;;20.45;17.50;;;;;;;22.89;59.16;101706.41;5070998;28;20029;-74
2023/06/25 06:22:58;;;;;;;19.73;16.88;;;;;;;22.92;59.14;101703.00;5071317;28;20384;-73
2023/06/25 06:25:24;;;;;;;20.58;15.63;;;;;;;22.97;57.92;101710.53;5071330;28;20037;-74
2023/06/25 06:27:49;;;;;;;20.52;16.83;;;;;;;22.98;58.42;101707.38;5068040;28;20357;-73
2023/06/25 06:30:14;;;;;;;19.00;16.92;;;;;;;23.03;58.89;101712.09;5062666;28;20089;-73
2023/06/25 06:32:40;;;;;;;20.25;16.58;;;;;;;23.05;57.60;101706.94;5068049;28;20020;-72
2023/06/25 06:35:05;;;;;;;17.48;15.50;;;;;;;23.11;58.47;101711.34;5069256;28;20064;-74
2023/06/25 06:37:30;;;;;;;18.70;15.27;;;;;;;23.16;57.34;101707.56;5068340;28;20040;-73
2023/06/25 06:39:57;;;;;;;22.83;15.10;;;;;;;23.22;56.33;101701.44;5066784;28;20029;-73
2023/06/25 06:42:22;;;;;;;15.63;13.77;;;;;;;23.28;56.94;101702.19;5055272;28;20032;-73
2023/06/25 06:44:47;;;;;;;15.02;12.70;;;;;;;23.35;54.55;101698.94;5067774;28;20533;-72
2023/06/25 06:47:13;;;;;;;15.48;13.05;;;;;;;23.38;55.12;101699.09;5062426;28;20028;-73
2023/06/25 06:49:38;;;;;;;14.55;11.63;;;;;;;23.44;54.38;101697.00;5071109;28;20056;-72
2023/06/25 06:52:04;;;;;;;14.65;11.73;;;;;;;23.48;54.54;101698.88;5067304;28;20051;-72
2023/06/25 06:54:29;;;;;;;14.90;10.63;;;;;;;23.55;52.18;101695.59;5066299;28;20032;-74
2023/06/25 06:56:54;;;;;;;11.95;10.13;;;;;;;23.58;51.93;101696.94;5067892;28;20375;-73
2023/06/25 06:59:20;;;;;;;11.95;10.25;;;;;;;23.58;51.15;101696.94;5068518;28;20033;-73
2023/06/25 07:01:45;;;;;;;13.18;9.50;;;;;;;23.62;51.25;101693.16;5067087;28;20527;-72
2023/06/25 07:04:10;;;;;;;13.38;9.05;;;;;;;23.73;51.14;101697.41;5064536;28;20029;-72
2023/06/25 07:06:36;;;;;;;10.13;8.65;;;;;;;23.78;50.67;101696.47;5055559;28;20396;-73
2023/06/25 07:09:01;;;;;;;11.93;8.23;;;;;;;23.86;50.56;101695.69;5071954;28;20191;-72
2023/06/25 07:11:27;;;;;;;9.65;7.90;;;;;;;23.92;49.70;101693.56;5069044;28;20032;-73
2023/06/25 07:13:52;;;;;;;9.25;8.20;;;;;;;23.95;49.30;101698.59;5063926;28;20032;-76
2023/06/25 07:16:18;;;;;;;11.43;7.63;;;;;;;23.97;47.68;101697.13;5069729;28;20132;-73
2023/06/25 07:18:43;;;;;;;8.65;7.75;;;;;;;23.99;49.02;101696.78;5051347;28;20068;-73
2023/06/25 07:21:09;;;;;;;9.02;6.00;;;;;;;24.05;46.98;101695.50;5061958;28;20111;-72
2023/06/25 07:23:38;;;;;;;7.65;6.18;;;;;;;24.07;46.98;101701.66;5068017;28;20032;-74
2023/06/25 07:26:03;;;;;;;11.52;6.38;;;;;;;24.18;46.45;101696.56;5063994;28;20031;-71
2023/06/25 07:28:29;;;;;;;10.20;5.90;;;;;;;24.35;46.46;101693.81;5052879;28;20115;-71
2023/06/25 07:30:54;;;;;;;6.55;5.60;;;;;;;24.43;47.59;101690.19;5058724;28;20029;-70
2023/06/25 07:33:19;;;;;;;8.48;6.13;;;;;;;24.41;46.10;101686.03;5066496;28;20480;-69
2023/06/25 07:35:45;;;;;;;9.23;6.13;;;;;;;24.40;46.59;101684.34;5070123;28;20040;-71
2023/06/25 07:38:10;;;;;;;6.65;5.70;;;;;;;24.50;45.86;101684.06;5072403;28;20574;-73
2023/06/25 07:40:35;;;;;;;6.65;5.90;;;;;;;24.52;47.37;101684.56;5069872;28;20539;-74
2023/06/25 07:43:02;;;;;;;8.55;5.70;;;;;;;24.58;46.85;101682.44;5084153;28;20038;-72
2023/06/25 07:45:28;;;;;;;7.32;5.72;;;;;;;24.60;47.20;101683.78;5073899;28;20035;-73
2023/06/25 07:47:53;;;;;;;6.15;5.40;;;;;;;24.72;48.29;101686.00;5062302;28;20396;-74
2023/06/25 07:50:18;;;;;;;6.22;5.45;;;;;;;24.93;47.15;101681.38;5063030;28;20029;-74
2023/06/25 07:52:44;;;;;;;7.88;5.80;;;;;;;24.86;46.91;101683.00;5057292;28;20469;-75
2023/06/25 07:55:09;;;;;;;8.85;5.72;;;;;;;24.90;46.51;101675.50;5066065;28;20142;-71
2023/06/25 07:57:34;;;;;;;7.93;6.40;;;;;;;24.90;46.67;101669.81;5078645;28;20062;-73
2023/06/25 08:00:00;;;;;;;6.53;5.65;;;;;;;25.02;47.39;101672.84;5051433;28;20039;-66
2023/06/25 08:02:25;;;;;;;6.47;5.80;;;;;;;25.05;46.90;101674.22;5065162;28;20054;-71
2023/06/25 08:04:51;;;;;;;7.60;5.63;;;;;;;25.15;47.11;101671.94;5061314;28;20384;-70
2023/06/25 08:07:16;;;;;;;7.05;6.25;;;;;;;25.32;47.45;101673.94;5062380;28;20789;-74
2023/06/25 08:09:43;;;;;;;7.65;5.82;;;;;;;25.32;47.25;101671.09;5066475;28;20063;-72
2023/06/25 08:12:09;;;;;;;8.10;6.07;;;;;;;25.34;47.00;101677.25;5060011;28;20028;-75
2023/06/25 08:14:34;;;;;;;7.85;5.97;;;;;;;25.49;47.34;101675.94;5061515;28;20032;-74
2023/06/25 08:16:59;;;;;;;7.00;6.00;;;;;;;25.52;47.15;101666.75;5060820;28;20038;-72
2023/06/25 08:19:25;;;;;;;8.02;6.38;;;;;;;25.56;46.66;101676.28;5064533;28;20040;-66
2023/06/25 08:21:50;;;;;;;7.53;5.80;;;;;;;25.77;46.70;101669.88;5060643;28;20024;-74
2023/06/25 08:24:15;;;;;;;9.65;6.15;;;;;;;25.68;46.64;101676.44;5065141;28;20028;-77
2023/06/25 08:26:40;;;;;;;6.22;5.63;;;;;;;25.76;47.26;101668.22;5070556;28;20054;-76
2023/06/25 08:29:06;;;;;;;10.25;5.78;;;;;;;25.89;47.44;101658.69;5053631;28;20439;-77
2023/06/25 08:31:31;;;;;;;7.50;6.18;;;;;;;25.86;46.95;101667.88;5066516;28;20131;-75
2023/06/25 08:33:57;;;;;;;8.00;6.45;;;;;;;25.80;46.53;101661.56;5068000;28;20040;-77
2023/06/25 08:36:22;;;;;;;6.68;5.50;;;;;;;25.85;46.55;101657.69;5058599;28;20127;-73
2023/06/25 08:38:47;;;;;;;7.40;5.60;;;;;;;25.85;46.36;101661.38;5057945;28;20036;-76
2023/06/25 08:41:12;;;;;;;8.07;5.60;;;;;;;25.95;46.97;101657.34;5056066;28;20033;-69
2023/06/25 08:43:38;;;;;;;5.35;4.82;;;;;;;25.98;47.32;101656.69;5065960;28;20073;-74
2023/06/25 08:46:03;;;;;;;7.47;5.70;;;;;;;26.08;47.16;101656.31;5066716;28;20033;-74
2023/06/25 08:48:31;;;;;;;8.07;5.22;;;;;;;26.09;46.07;101649.44;5068087;28;20067;-74
2023/06/25 08:51:03;;;;;;;6.82;5.30;;;;;;;26.17;45.99;101647.72;5069310;28;20070;-74
2023/06/25 08:53:28;;;;;;;7.35;4.72;;;;;;;26.33;46.38;101646.03;5069408;28;20020;-74
2023/06/25 08:55:57;;;;;;;6.15;5.43;;;;;;;26.27;45.42;101649.38;5054261;28;20441;-74
2023/06/25 08:58:24;;;;;;;6.60;5.22;;;;;;;26.44;45.70;101643.59;5053909;28;20052;-75
2023/06/25 09:00:49;;;;;;;5.70;5.20;;;;;;;26.46;46.58;101641.28;5068995;28;20446;-74
2023/06/25 09:03:15;;;;;;;6.50;4.93;;;;;;;26.51;46.07;101643.94;5069755;28;20104;-73
2023/06/25 09:05:50;;;;;;;6.10;5.50;;;;;;;26.46;45.51;101640.47;5070034;28;20035;-73
2023/06/25 09:08:16;;;;;;;6.53;5.03;;;;;;;26.58;44.95;101640.56;5070308;28;20119;-73
2023/06/25 09:10:41;;;;;;;6.72;5.28;;;;;;;26.52;44.37;101650.47;5069870;28;20037;-74
2023/06/25 09:13:07;;;;;;;5.97;5.43;;;;;;;26.57;44.97;101648.28;5068095;28;20086;-74
2023/06/25 09:15:32;;;;;;;7.05;5.88;;;;;;;26.57;44.52;101631.19;5072347;28;20033;-73
2023/06/25 09:17:57;;;;;;;6.18;5.55;;;;;;;26.66;44.38;101628.28;5072342;28;20376;-73
2023/06/25 09:20:23;;;;;;;5.82;5.15;;;;;;;26.76;44.44;101632.75;5074129;28;20074;-73
2023/06/25 09:22:50;;;;;;;5.72;5.15;;;;;;;26.97;44.39;101632.78;5073753;28;20446;-73
2023/06/25 09:25:16;;;;;;;9.88;5.43;;;;;;;26.87;45.48;101620.59;5072725;28;20028;-74
2023/06/25 09:27:41;;;;;;;7.38;5.25;;;;;;;26.94;44.84;101628.63;5073620;28;20795;-73
2023/06/25 09:30:10;;;;;;;7.55;5.07;;;;;;;26.94;44.65;101631.47;5066602;28;20510;-73
2023/06/25 09:32:36;;;;;;;7.95;5.18;;;;;;;27.12;44.74;101620.81;5067763;28;20047;-73
2023/06/25 09:35:03;;;;;;;6.28;5.28;;;;;;;27.13;43.88;101628.19;5072160;28;20032;-73
2023/06/25 09:37:28;;;;;;;7.03;4.95;;;;;;;27.27;42.50;101628.72;5073091;28;20036;-73
2023/06/25 09:39:53;;;;;;;5.55;4.90;;;;;;;27.17;43.38;101627.13;5072557;28;20388;-73
2023/06/25 09:42:19;;;;;;;5.90;5.30;;;;;;;27.25;43.38;101624.56;5071502;28;20609;-74
2023/06/25 09:44:48;;;;;;;7.72;5.18;;;;;;;27.32;42.65;101627.69;5060531;28;20024;-73
2023/06/25 09:47:16;;;;;;;6.88;5.20;;;;;;;27.36;42.34;101620.09;5064459;28;20082;-73
2023/06/25 09:49:41;;;;;;;5.57;4.80;;;;;;;27.36;42.37;101617.25;5069439;28;20476;-73
2023/06/25 09:52:14;;;;;;;7.72;5.47;;;;;;;27.47;42.62;101612.81;5072133;28;20122;-73
2023/06/25 09:54:41;;;;;;;5.35;4.63;;;;;;;27.47;42.75;101612.81;5055866;28;20029;-73
2023/06/25 09:57:16;;;;;;;5.43;4.93;;;;;;;27.49;42.61;101610.41;5067311;28;20155;-72
2023/06/25 09:59:41;;;;;;;5.50;4.97;;;;;;;27.61;42.26;101609.63;5072421;28;20124;-72
2023/06/25 10:02:07;;;;;;;5.07;4.57;;;;;;;27.79;42.15;101604.63;5072943;28;20029;-72
2023/06/25 10:04:34;;;;;;;5.57;4.85;;;;;;;27.80;41.15;101614.84;5070131;28;20044;-73
2023/06/25 10:07:01;;;;;;;6.57;5.00;;;;;;;27.74;41.90;101607.66;5071881;28;20028;-73
2023/06/25 10:09:27;;;;;;;5.28;4.78;;;;;;;27.78;41.55;101605.78;5069763;28;20028;-73
2023/06/25 10:11:56;;;;;;;5.40;4.82;;;;;;;27.78;41.38;101603.75;5083947;28;20028;-73
2023/06/25 10:14:21;;;;;;;6.50;5.00;;;;;;;27.81;41.21;101602.22;5052214;28;20033;-73
2023/06/25 10:16:56;;;;;;;5.40;4.90;;;;;;;27.91;41.58;101598.94;5063128;28;20381;-73
2023/06/25 10:19:22;;;;;;;8.32;4.97;;;;;;;28.05;41.08;101598.59;5066016;28;20024;-73
2023/06/25 10:21:59;;;;;;;5.07;4.68;;;;;;;28.06;41.23;101592.56;5058134;28;20025;-72
2023/06/25 10:24:24;;;;;;;5.53;5.03;;;;;;;28.07;40.35;101593.38;5062366;28;20032;-73
2023/06/25 10:26:53;;;;;;;8.70;5.00;;;;;;;28.13;39.52;101589.91;5071439;28;20066;-72
2023/06/25 10:29:19;;;;;;;7.03;4.78;;;;;;;28.05;38.38;101585.16;5072563;28;20040;-72
2023/06/25 10:31:45;;;;;;;5.18;4.68;;;;;;;28.06;38.56;101589.69;5071929;28;20056;-72
2023/06/25 10:34:10;;;;;;;5.63;4.90;;;;;;;28.20;39.15;101579.94;5071367;28;20029;-72
2023/06/25 10:36:36;;;;;;;5.88;5.32;;;;;;;28.09;38.87;101583.25;5064443;28;20043;-73
2023/06/25 10:39:03;;;;;;;5.93;5.32;;;;;;;28.13;38.72;101571.97;5070330;28;20034;-72
2023/06/25 10:41:29;;;;;;;10.40;5.10;;;;;;;28.13;39.13;101575.66;5067142;28;20405;-73
2023/06/25 10:43:57;;;;;;;6.63;4.90;;;;;;;28.17;38.61;101577.78;5072071;28;20040;-73
2023/06/25 10:46:32;;;;;;;5.45;4.93;;;;;;;28.27;39.29;101572.47;5070512;28;20028;-71
2023/06/25 10:49:01;;;;;;;5.82;4.90;;;;;;;28.25;37.71;101566.25;5071591;28;20032;-70
2023/06/25 10:51:28;;;;;;;6.07;5.47;;;;;;;28.24;37.36;101575.19;5060581;28;20111;-71
2023/06/25 10:53:55;;;;;;;5.47;4.40;;;;;;;28.26;38.11;101565.09;5059497;28;20032;-70
2023/06/25 10:56:21;;;;;;;4.95;4.55;;;;;;;28.36;37.89;101558.06;5062241;28;20025;-70
2023/06/25 10:58:53;;;;;;;5.93;4.60;;;;;;;28.43;38.27;101564.03;5070766;28;20039;-70
2023/06/25 11:01:19;;;;;;;5.47;4.65;;;;;;;28.50;37.71;101558.56;5071244;28;20024;-71
2023/06/25 11:03:44;;;;;;;6.65;4.80;;;;;;;28.48;37.00;101555.22;5067011;28;20098;-72
2023/06/25 11:06:10;;;;;;;7.25;4.80;;;;;;;28.50;36.54;101552.84;5066389;28;20028;-72
2023/06/25 11:08:35;;;;;;;8.48;4.72;;;;;;;28.43;37.10;101552.63;5069117;28;20048;-72